Tahitian Princess — ZCDD8 — position and weather

sailwx.info

Track history (hours):
 
Tides and Currents Weather Stations Pressure Air Temp Water Temp Dewpoint Dewpoint Depression Visibility Wind Speed Wind Dir Waves Ship Positions

Tahitian Princess

Operator: P & O Irish Sea Ltd

Last reported at 2019-Jun-16 22:41 UTC. Time now 2019-Jun-17 19:42 UTC.
Position N 53°34' W 003°53'.

Length 167 m; draft 5.6 m.

Type: Passenger vessel. MMSI: 310362000.

Date/timePositionNaut miles runAvg speedWind from/ knotsBaromVisibWave heightAir tempDewpointWater temp
2019-Jun-16 22:41N 53°34' W 003°53'316.2
2019-Jun-16 22:30N 53°34' W 003°48'816.0
2019-Jun-16 22:00N 53°33' W 003°35'816.1
2019-Jun-16 21:30N 53°33' W 003°21'816.5
2019-Jun-16 21:00N 53°32' W 003°08'612.1
2019-Jun-16 20:30N 53°27' W 003°01'0 0.8
2019-Jun-16 20:00N 53°27' W 003°01'0 0.2
2019-Jun-16 19:30N 53°27' W 003°01'0 0.0
2019-Jun-16 19:00N 53°27' W 003°01'0 0.0
2019-Jun-16 18:30N 53°27' W 003°01'0 0.0
2019-Jun-16 18:00N 53°27' W 003°01'0 0.0
2019-Jun-16 17:30N 53°27' W 003°01'0 0.0
2019-Jun-16 17:00N 53°27' W 003°01'0 0.0
2019-Jun-16 16:30N 53°27' W 003°01'0 0.0
2019-Jun-16 16:00N 53°27' W 003°01'0 0.0
2019-Jun-16 15:30N 53°27' W 003°01'0 0.0
2019-Jun-16 15:00N 53°27' W 003°01'0 0.0
2019-Jun-16 14:30N 53°27' W 003°01'0 0.0
2019-Jun-16 14:00N 53°27' W 003°01'0 0.0
2019-Jun-16 13:30N 53°27' W 003°01'0 0.0
2019-Jun-16 13:00N 53°27' W 003°01'0 0.0
2019-Jun-16 12:30N 53°27' W 003°01'0 0.0
2019-Jun-16 12:00N 53°27' W 003°01'0 0.0
2019-Jun-16 11:30N 53°27' W 003°01'0 0.0
2019-Jun-16 11:00N 53°27' W 003°01'0 0.0
2019-Jun-16 10:30N 53°27' W 003°01'0 0.0
2019-Jun-16 10:00N 53°27' W 003°01'0 0.0
2019-Jun-16 09:30N 53°27' W 003°01'0 0.0
2019-Jun-16 09:00N 53°27' W 003°01'0 0.0
2019-Jun-16 08:30N 53°27' W 003°01'0 0.0
2019-Jun-16 08:00N 53°27' W 003°01'0 0.0
2019-Jun-16 07:30N 53°27' W 003°01'0 0.0
2019-Jun-16 07:00N 53°27' W 003°01'0 0.0
2019-Jun-16 06:30N 53°27' W 003°01'0 0.0
2019-Jun-16 06:00N 53°27' W 003°01'0 0.0
2019-Jun-16 05:30N 53°27' W 003°01'0 0.0
2019-Jun-16 05:00N 53°27' W 003°01'0 0.8
2019-Jun-16 04:30N 53°27' W 003°01'0 0.3
2019-Jun-16 04:00N 53°27' W 003°01'612.7
2019-Jun-16 03:30N 53°32' W 003°08'816.0
2019-Jun-16 03:00N 53°31' W 003°22'714.5
2019-Jun-16 02:30N 53°31' W 003°34'713.9
2019-Jun-16 02:00N 53°32' W 003°45'714.8
2019-Jun-16 01:31N 53°33' W 003°58'815.0
2019-Jun-16 01:00N 53°35' W 004°10'5816.0
2019-Jun-15 21:23N 53°24' W 005°46'1019.6
2019-Jun-15 20:54N 53°21' W 006°01'614.8
2019-Jun-15 20:30N 53°21' W 006°11'1 3.0
2019-Jun-15 20:00N 53°21' W 006°13'0 0.0
2019-Jun-15 19:24N 53°21' W 006°13'0 0.0
2019-Jun-15 18:51N 53°21' W 006°13'0 0.0
2019-Jun-15 18:21N 53°21' W 006°13'0 0.0
2019-Jun-15 17:48N 53°21' W 006°13'0 0.0
2019-Jun-15 17:18N 53°21' W 006°13'0 0.0
2019-Jun-15 16:48N 53°21' W 006°13'0 0.0
2019-Jun-15 16:30N 53°21' W 006°13'3 5.0
2019-Jun-15 16:00N 53°21' W 006°09'816.4
2019-Jun-15 15:30N 53°22' W 005°56'917.6
2019-Jun-15 14:59N 53°25' W 005°41'5918.5
2019-Jun-15 11:47N 53°34' W 004°02'819.8
2019-Jun-15 11:23N 53°34' W 003°50'719.4
2019-Jun-15 11:00N 53°33' W 003°37'1019.2
2019-Jun-15 10:30N 53°32' W 003°21'918.0
2019-Jun-15 10:00N 53°31' W 003°06'5 9.4
2019-Jun-15 09:30N 53°27' W 003°01'0 0.9
2019-Jun-15 09:00N 53°27' W 003°01'0 0.0
2019-Jun-15 08:30N 53°27' W 003°01'0 0.0
2019-Jun-15 08:00N 53°27' W 003°01'0 0.0
2019-Jun-15 07:30N 53°27' W 003°01'0 0.0
2019-Jun-15 07:00N 53°27' W 003°01'0 0.0
2019-Jun-15 06:30N 53°27' W 003°01'0 0.0
2019-Jun-15 06:00N 53°27' W 003°01'0 0.0
2019-Jun-15 05:30N 53°27' W 003°01'0 0.0
2019-Jun-15 05:00N 53°27' W 003°01'0 0.0
2019-Jun-15 04:30N 53°27' W 003°01'0 0.8
2019-Jun-15 04:00N 53°27' W 003°01'0 0.3
2019-Jun-15 03:30N 53°27' W 003°01'612.0
2019-Jun-15 03:01N 53°31' W 003°08'816.3
2019-Jun-15 02:31N 53°31' W 003°21'1019.5
2019-Jun-15 02:00N 53°31' W 003°38'1019.4
2019-Jun-15 01:30N 53°32' W 003°54'1018.8
2019-Jun-15 01:00N 53°33' W 004°10'6018.1
2019-Jun-14 21:42N 53°23' W 005°49'719.2
2019-Jun-14 21:20N 53°21' W 006°00'516.3
2019-Jun-14 21:01N 53°21' W 006°09'2 4.6
2019-Jun-14 20:30N 53°21' W 006°13'0 0.0
2019-Jun-14 20:00N 53°21' W 006°13'0 0.0
2019-Jun-14 19:30N 53°21' W 006°13'0 0.0
2019-Jun-14 19:00N 53°21' W 006°13'0 0.0
2019-Jun-14 18:30N 53°21' W 006°13'0 0.0
2019-Jun-14 18:00N 53°21' W 006°13'0 0.0
2019-Jun-14 17:30N 53°21' W 006°13'0 0.0
2019-Jun-14 17:00N 53°21' W 006°13'0 0.0
2019-Jun-14 16:30N 53°21' W 006°13'2 4.3
2019-Jun-14 16:00N 53°21' W 006°10'815.2
2019-Jun-14 15:30N 53°22' W 005°57'918.4
2019-Jun-14 15:00N 53°25' W 005°42'5619.5
2019-Jun-14 12:08N 53°34' W 004°10'320.6
2019-Jun-14 12:00N 53°34' W 004°05'1020.4
2019-Jun-14 11:30N 53°33' W 003°48'1020.0
2019-Jun-14 11:01N 53°33' W 003°31'1019.7
2019-Jun-14 10:31N 53°31' W 003°15'816.2
2019-Jun-14 10:01N 53°28' W 003°03'1 2.1
2019-Jun-14 09:30N 53°27' W 003°01'0 0.8
2019-Jun-14 09:00N 53°27' W 003°01'0 0.0
2019-Jun-14 08:30N 53°27' W 003°01'0 0.0
2019-Jun-14 08:00N 53°27' W 003°01'0 0.0
2019-Jun-14 07:30N 53°27' W 003°01'0 0.0
2019-Jun-14 07:00N 53°27' W 003°01'0 0.0
2019-Jun-14 06:30N 53°27' W 003°01'0 0.0
2019-Jun-14 06:00N 53°27' W 003°01'0 0.0
2019-Jun-14 05:30N 53°27' W 003°01'0 0.0
2019-Jun-14 05:00N 53°27' W 003°01'0 0.0
2019-Jun-14 04:30N 53°27' W 003°01'0 0.8
2019-Jun-14 04:00N 53°27' W 003°01'0 0.4
2019-Jun-14 03:30N 53°27' W 003°01'611.1
2019-Jun-14 03:01N 53°31' W 003°07'816.4
2019-Jun-14 02:31N 53°31' W 003°21'918.9
2019-Jun-14 02:01N 53°31' W 003°37'918.2
2019-Jun-14 01:31N 53°33' W 003°52'917.9
2019-Jun-14 01:00N 53°35' W 004°07'6918.2
2019-Jun-13 21:13N 53°21' W 005°60'417.7
2019-Jun-13 21:01N 53°20' W 006°06'4 8.8
2019-Jun-13 20:30N 53°21' W 006°13'0 0.0
2019-Jun-13 20:00N 53°21' W 006°13'0 0.0
2019-Jun-13 19:30N 53°21' W 006°13'0 0.0
2019-Jun-13 19:00N 53°21' W 006°13'0 0.0
2019-Jun-13 18:30N 53°21' W 006°13'0 0.0
2019-Jun-13 18:00N 53°21' W 006°13'0 0.0
2019-Jun-13 17:30N 53°21' W 006°13'0 0.0
2019-Jun-13 17:00N 53°21' W 006°13'0 0.0
2019-Jun-13 16:29N 53°21' W 006°13'2 4.9
2019-Jun-13 16:00N 53°21' W 006°09'815.8
2019-Jun-13 15:30N 53°23' W 005°56'1016.7
2019-Jun-13 14:55N 53°25' W 005°40'5616.9
2019-Jun-13 11:36N 53°34' W 004°07'218.4
2019-Jun-13 11:30N 53°34' W 004°04'918.3
2019-Jun-13 11:01N 53°34' W 003°49'918.1
2019-Jun-13 10:31N 53°33' W 003°34'917.9
2019-Jun-13 10:01N 53°32' W 003°19'917.0
2019-Jun-13 09:30N 53°30' W 003°05'4 7.4
2019-Jun-13 09:00N 53°27' W 003°01'0 0.8
2019-Jun-13 08:28N 53°27' W 003°01'0 0.0
2019-Jun-13 07:58N 53°27' W 003°01'0 0.0
2019-Jun-13 07:28N 53°27' W 003°01'0 0.0
2019-Jun-13 06:58N 53°27' W 003°01'0 0.0
2019-Jun-13 06:28N 53°27' W 003°01'0 0.0
2019-Jun-13 05:58N 53°27' W 003°01'0 0.0
2019-Jun-13 05:28N 53°27' W 003°01'0 0.0
2019-Jun-13 04:58N 53°27' W 003°01'0 0.0
2019-Jun-13 04:31N 53°27' W 003°01'0 0.8
2019-Jun-13 04:00N 53°27' W 003°01'0 0.4
2019-Jun-13 03:30N 53°27' W 003°01'612.6
2019-Jun-13 03:01N 53°32' W 003°08'917.9
2019-Jun-13 02:30N 53°31' W 003°23'918.5
2019-Jun-13 02:00N 53°31' W 003°39'918.2
2019-Jun-13 01:30N 53°32' W 003°54'918.2
2019-Jun-13 01:00N 53°34' W 004°09'6317.4
2019-Jun-12 21:21N 53°23' W 005°54'618.0
2019-Jun-12 21:00N 53°20' W 006°03'611.3
2019-Jun-12 20:30N 53°21' W 006°13'0 0.3
2019-Jun-12 19:58N 53°21' W 006°13'0 0.0
2019-Jun-12 19:28N 53°21' W 006°13'0 0.0
2019-Jun-12 18:58N 53°21' W 006°13'0 0.0
2019-Jun-12 18:19N 53°21' W 006°13'0 0.0
2019-Jun-12 17:46N 53°21' W 006°13'0 0.0
2019-Jun-12 17:10N 53°21' W 006°13'0 0.0
2019-Jun-12 16:58N 53°21' W 006°13'0 0.0
2019-Jun-12 16:30N 53°21' W 006°13'2 4.5
2019-Jun-12 16:00N 53°21' W 006°09'815.7
2019-Jun-12 15:30N 53°22' W 005°56'917.1
2019-Jun-12 15:00N 53°25' W 005°43'5717.0
2019-Jun-12 11:39N 53°34' W 004°08'317.5
2019-Jun-12 11:29N 53°34' W 004°03'817.9
2019-Jun-12 11:00N 53°34' W 003°49'918.1
2019-Jun-12 10:30N 53°33' W 003°34'917.9
2019-Jun-12 10:00N 53°32' W 003°19'816.7
2019-Jun-12 09:30N 53°29' W 003°05'3 6.9
2019-Jun-12 09:00N 53°27' W 003°01'0 0.9
2019-Jun-12 08:30N 53°27' W 003°01'0 0.0
2019-Jun-12 08:00N 53°27' W 003°01'0 0.0
2019-Jun-12 07:30N 53°27' W 003°01'0 0.0
2019-Jun-12 07:00N 53°27' W 003°01'0 0.0
2019-Jun-12 06:30N 53°27' W 003°01'0 0.0
2019-Jun-12 06:00N 53°27' W 003°01'0 0.0
2019-Jun-12 05:30N 53°27' W 003°01'0 0.0
2019-Jun-12 05:00N 53°27' W 003°01'0 0.0
2019-Jun-12 04:30N 53°27' W 003°01'0 0.9
2019-Jun-12 04:00N 53°27' W 003°01'0 0.3
2019-Jun-12 03:30N 53°27' W 003°01'4 8.1
2019-Jun-12 03:00N 53°30' W 003°06'816.1
2019-Jun-12 02:31N 53°31' W 003°19'1817.7
2019-Jun-12 01:31N 53°32' W 003°49'917.5
2019-Jun-12 01:01N 53°34' W 004°03'6817.2
2019-Jun-11 21:03N 53°22' W 005°56'217.9
2019-Jun-11 20:55N 53°21' W 005°59'614.8
2019-Jun-11 20:30N 53°21' W 006°10'2 4.0
2019-Jun-11 20:00N 53°21' W 006°13'0 0.0
2019-Jun-11 19:30N 53°21' W 006°13'0 0.0
2019-Jun-11 19:00N 53°21' W 006°13'0 0.0
2019-Jun-11 18:30N 53°21' W 006°13'0 0.0
2019-Jun-11 18:00N 53°21' W 006°13'0 0.0
2019-Jun-11 17:30N 53°21' W 006°13'0 0.0
2019-Jun-11 17:00N 53°21' W 006°13'0 0.0
2019-Jun-11 16:30N 53°21' W 006°13'1 1.0
2019-Jun-11 16:00N 53°21' W 006°12'612.4
2019-Jun-11 15:30N 53°21' W 006°02'917.0
2019-Jun-11 15:00N 53°24' W 005°48'5916.3
2019-Jun-11 11:22N 53°34' W 004°10'719.9
2019-Jun-11 11:00N 53°34' W 003°58'1020.2
2019-Jun-11 10:30N 53°34' W 003°42'1020.4
2019-Jun-11 10:00N 53°33' W 003°24'1019.0
2019-Jun-11 09:30N 53°32' W 003°09'612.9
2019-Jun-11 09:00N 53°27' W 003°01'0 0.2
2019-Jun-11 08:31N 53°27' W 003°01'0 0.7
2019-Jun-11 07:58N 53°27' W 003°01'0 0.0
2019-Jun-11 07:28N 53°27' W 003°01'0 0.0
2019-Jun-11 06:58N 53°27' W 003°01'0 0.0
2019-Jun-11 06:28N 53°27' W 003°01'0 0.0
2019-Jun-11 05:58N 53°27' W 003°01'0 0.0
2019-Jun-11 05:28N 53°27' W 003°01'0 0.0
2019-Jun-11 04:58N 53°27' W 003°01'0 0.0
2019-Jun-11 04:28N 53°27' W 003°01'0 0.0
2019-Jun-11 03:58N 53°27' W 003°01'0 0.9
2019-Jun-11 03:30N 53°27' W 003°01'4 7.6
2019-Jun-11 03:00N 53°30' W 003°05'816.7
2019-Jun-11 02:30N 53°31' W 003°19'918.6
2019-Jun-11 02:00N 53°31' W 003°35'918.4
2019-Jun-11 01:30N 53°32' W 003°50'918.7
2019-Jun-11 01:00N 53°33' W 004°06'5316.0
2019-Jun-10 21:42N 53°26' W 005°33'1717.3
2019-Jun-10 20:42N 53°21' W 006°01'316.4
2019-Jun-10 20:30N 53°20' W 006°06'4 8.3
2019-Jun-10 20:00N 53°21' W 006°13'0 0.0
2019-Jun-10 19:30N 53°21' W 006°13'0 0.0
2019-Jun-10 18:57N 53°21' W 006°13'0 0.0
2019-Jun-10 18:24N 53°21' W 006°13'0 0.0
2019-Jun-10 17:51N 53°21' W 006°13'0 0.0
2019-Jun-10 17:18N 53°21' W 006°13'0 0.0
2019-Jun-10 16:48N 53°21' W 006°13'0 0.0
2019-Jun-10 16:22N 53°21' W 006°13'0 1.4
2019-Jun-10 16:00N 53°21' W 006°12'5 9.1
2019-Jun-10 15:30N 53°20' W 006°05'2 3.3
2019-Jun-10 15:01N 53°19' W 006°04'0 0.2
2019-Jun-10 14:30N 53°19' W 006°05'0 0.0
2019-Jun-10 14:01N 53°19' W 006°05'0 0.0
2019-Jun-10 13:30N 53°19' W 006°05'0 0.0
2019-Jun-10 13:01N 53°19' W 006°05'0 0.0
2019-Jun-10 12:31N 53°19' W 006°05'0 0.0
2019-Jun-10 12:00N 53°19' W 006°05'0 0.1
2019-Jun-10 11:30N 53°19' W 006°05'0 0.0
2019-Jun-10 11:00N 53°19' W 006°05'0 0.0
2019-Jun-10 10:31N 53°19' W 006°05'0 0.0
2019-Jun-10 10:00N 53°19' W 006°05'0 0.0
2019-Jun-10 09:30N 53°19' W 006°05'0 0.0
2019-Jun-10 09:01N 53°19' W 006°05'0 0.0
2019-Jun-10 08:31N 53°19' W 006°05'0 0.0
2019-Jun-10 08:01N 53°19' W 006°05'0 0.2
2019-Jun-10 07:30N 53°19' W 006°04'4 7.6
2019-Jun-10 07:00N 53°21' W 006°10'2 4.1
2019-Jun-10 06:30N 53°21' W 006°13'0 0.0
2019-Jun-10 06:00N 53°21' W 006°13'0 0.0
2019-Jun-10 05:30N 53°21' W 006°13'0 0.0
2019-Jun-10 05:00N 53°21' W 006°13'0 0.0
2019-Jun-10 04:30N 53°21' W 006°13'2 3.1
2019-Jun-10 04:00N 53°21' W 006°11'713.7
2019-Jun-10 03:29N 53°22' W 005°59'816.7
2019-Jun-10 03:00N 53°24' W 005°46'916.3
2019-Jun-10 02:28N 53°27' W 005°32'5315.5
2019-Jun-09 23:05N 53°35' W 004°05'216.1
2019-Jun-09 22:57N 53°35' W 004°01'716.4
2019-Jun-09 22:30N 53°34' W 003°49'816.9
2019-Jun-09 22:01N 53°34' W 003°35'917.1
2019-Jun-09 21:31N 53°33' W 003°21'917.2
2019-Jun-09 21:01N 53°31' W 003°06'510.0
2019-Jun-09 20:30N 53°27' W 003°01'0 0.5
2019-Jun-09 20:00N 53°27' W 003°01'0 0.5
2019-Jun-09 19:29N 53°27' W 003°01'0 0.0
2019-Jun-09 18:59N 53°27' W 003°01'0 0.0
2019-Jun-09 18:30N 53°27' W 003°01'0 0.0
2019-Jun-09 18:00N 53°27' W 003°01'0 0.0
2019-Jun-09 17:31N 53°27' W 003°01'0 0.0
2019-Jun-09 17:01N 53°27' W 003°01'0 0.0
2019-Jun-09 16:31N 53°27' W 003°01'0 0.0
2019-Jun-09 16:00N 53°27' W 003°01'0 0.0
2019-Jun-09 15:30N 53°27' W 003°01'0 0.0
2019-Jun-09 15:00N 53°27' W 003°01'0 0.0
2019-Jun-09 14:30N 53°27' W 003°01'0 0.0
2019-Jun-09 14:00N 53°27' W 003°01'0 0.0
2019-Jun-09 13:30N 53°27' W 003°01'0 0.0
2019-Jun-09 13:00N 53°27' W 003°01'0 0.0
2019-Jun-09 12:30N 53°27' W 003°01'0 0.0
2019-Jun-09 12:00N 53°27' W 003°01'0 0.0
2019-Jun-09 11:30N 53°27' W 003°01'0 0.0
2019-Jun-09 11:00N 53°27' W 003°01'0 0.0
2019-Jun-09 10:30N 53°27' W 003°01'0 0.0
2019-Jun-09 10:00N 53°27' W 003°01'0 0.0
2019-Jun-09 09:30N 53°27' W 003°01'0 0.0
2019-Jun-09 09:00N 53°27' W 003°01'0 0.0
2019-Jun-09 08:30N 53°27' W 003°01'0 0.0
2019-Jun-09 08:00N 53°27' W 003°01'0 0.0
2019-Jun-09 07:31N 53°27' W 003°01'0 0.0
2019-Jun-09 07:00N 53°27' W 003°01'0 0.0
2019-Jun-09 06:30N 53°27' W 003°01'0 0.0
2019-Jun-09 06:00N 53°27' W 003°01'0 0.0
2019-Jun-09 05:30N 53°27' W 003°01'0 0.0
2019-Jun-09 05:01N 53°27' W 003°01'0 0.4
2019-Jun-09 04:01N 53°27' W 003°01'4 7.9
2019-Jun-09 03:30N 53°30' W 003°06'917.2
2019-Jun-09 03:00N 53°31' W 003°20'816.9
2019-Jun-09 02:30N 53°31' W 003°34'816.0
2019-Jun-09 02:00N 53°31' W 003°48'816.7
2019-Jun-09 01:30N 53°33' W 004°02'916.3
2019-Jun-09 00:57N 53°36' W 004°16'6415.7
2019-Jun-08 20:51N 53°21' W 006°01'515.2
2019-Jun-08 20:30N 53°21' W 006°09'2 2.9
2019-Jun-08 19:45N 53°21' W 006°13'0 0.0
2019-Jun-08 19:12N 53°21' W 006°13'0 0.0
2019-Jun-08 19:00N 53°21' W 006°13'0 0.0
2019-Jun-08 18:30N 53°21' W 006°13'0 0.0
2019-Jun-08 17:54N 53°21' W 006°13'0 0.0
2019-Jun-08 17:30N 53°21' W 006°13'0 0.0
2019-Jun-08 17:00N 53°21' W 006°13'1 2.5
2019-Jun-08 16:30N 53°21' W 006°11'510.7
2019-Jun-08 16:00N 53°21' W 006°02'1019.0
2019-Jun-08 15:30N 53°24' W 005°47'5917.7
2019-Jun-08 12:09N 53°34' W 004°09'216.6
2019-Jun-08 12:00N 53°34' W 004°05'816.8
2019-Jun-08 11:30N 53°34' W 003°51'917.3
2019-Jun-08 11:00N 53°34' W 003°36'917.6
2019-Jun-08 10:30N 53°32' W 003°22'816.3
2019-Jun-08 10:00N 53°32' W 003°08'612.0
2019-Jun-08 09:30N 53°27' W 003°01'0 0.0
2019-Jun-08 09:00N 53°27' W 003°01'0 0.8
2019-Jun-08 08:30N 53°27' W 003°01'0 0.0
2019-Jun-08 07:57N 53°27' W 003°01'0 0.0
2019-Jun-08 07:30N 53°27' W 003°01'0 0.0
2019-Jun-08 07:00N 53°27' W 003°01'0 0.0
2019-Jun-08 06:27N 53°27' W 003°01'0 0.0
2019-Jun-08 05:57N 53°27' W 003°01'0 0.0
2019-Jun-08 05:30N 53°27' W 003°01'0 0.0
2019-Jun-08 05:00N 53°27' W 003°01'0 0.8
2019-Jun-08 04:28N 53°27' W 003°01'0 0.3
2019-Jun-08 04:00N 53°27' W 003°01'714.2
2019-Jun-08 03:31N 53°32' W 003°10'815.2
2019-Jun-08 03:01N 53°31' W 003°23'2 3.1
2019-Jun-08 02:30N 53°32' W 003°25'612.2
2019-Jun-08 02:01N 53°31' W 003°35'816.2
2019-Jun-08 01:30N 53°32' W 003°48'816.6
2019-Jun-08 01:00N 53°34' W 004°02'5917.0
2019-Jun-07 21:33N 53°25' W 005°40'418.9
2019-Jun-07 21:21N 53°24' W 005°46'919.3
2019-Jun-07 20:54N 53°21' W 005°60'615.4
2019-Jun-07 20:30N 53°21' W 006°10'2 4.0
2019-Jun-07 20:00N 53°21' W 006°13'0 0.0
2019-Jun-07 19:30N 53°21' W 006°13'0 0.0
2019-Jun-07 19:00N 53°21' W 006°13'0 0.0
2019-Jun-07 18:30N 53°21' W 006°13'0 0.0
2019-Jun-07 18:00N 53°21' W 006°13'0 0.0
2019-Jun-07 17:30N 53°21' W 006°13'0 0.0
2019-Jun-07 17:00N 53°21' W 006°13'0 0.0
2019-Jun-07 16:30N 53°21' W 006°13'2 3.1
2019-Jun-07 16:00N 53°21' W 006°11'816.3
2019-Jun-07 15:30N 53°22' W 005°57'815.9
2019-Jun-07 15:00N 53°24' W 005°44'1116.3
2019-Jun-07 14:21N 53°27' W 005°27'916.7
2019-Jun-07 13:48N 53°30' W 005°12'2016.9
2019-Jun-07 12:39N 53°34' W 004°40'317.5
2019-Jun-07 12:27N 53°34' W 004°34'817.0
2019-Jun-07 12:00N 53°34' W 004°21'817.0
2019-Jun-07 11:30N 53°34' W 004°07'917.1
2019-Jun-07 11:00N 53°34' W 003°53'917.4
2019-Jun-07 10:30N 53°33' W 003°38'917.8
2019-Jun-07 10:00N 53°33' W 003°23'816.6
2019-Jun-07 09:30N 53°32' W 003°09'714.0
2019-Jun-07 09:01N 53°27' W 003°01'0 0.3
2019-Jun-07 08:30N 53°27' W 003°01'0 0.8
2019-Jun-07 07:58N 53°27' W 003°01'0 0.0
2019-Jun-07 07:28N 53°27' W 003°01'0 0.0
2019-Jun-07 06:58N 53°27' W 003°01'0 0.0
2019-Jun-07 06:28N 53°27' W 003°01'0 0.0
2019-Jun-07 05:58N 53°27' W 003°01'0 0.0
2019-Jun-07 05:28N 53°27' W 003°01'0 0.0
2019-Jun-07 04:58N 53°27' W 003°01'0 0.0
2019-Jun-07 04:28N 53°27' W 003°01'0 0.5
2019-Jun-07 04:00N 53°27' W 003°01'0 0.8
2019-Jun-07 03:30N 53°27' W 003°01'611.4
2019-Jun-07 03:01N 53°31' W 003°07'917.5
2019-Jun-07 02:31N 53°31' W 003°22'918.7
2019-Jun-07 02:00N 53°32' W 003°38'1019.1
2019-Jun-07 01:31N 53°33' W 003°54'1119.5
2019-Jun-07 00:56N 53°35' W 004°12'818.4
2019-Jun-07 00:29N 53°40' W 004°24'  
Track history (hours):
 
Tides and Currents Weather Stations Pressure Air Temp Water Temp Dewpoint Dewpoint Depression Visibility Wind Speed Wind Dir Waves Ship Positions

Tahitian Princess

Operator: P & O Irish Sea Ltd

Last reported at 2019-Jun-16 22:41 UTC. Time now 2019-Jun-17 19:42 UTC.
Position N 53°34' W 003°53'.

Length 167 m; draft 5.6 m.

Type: Passenger vessel. MMSI: 310362000.

Date/timePositionNaut miles runAvg speedWind from/ knotsBaromVisibWave heightAir tempDewpointWater temp
2019-Jun-16 22:41N 53°34' W 003°53'316.2
2019-Jun-16 22:30N 53°34' W 003°48'816.0
2019-Jun-16 22:00N 53°33' W 003°35'816.1
2019-Jun-16 21:30N 53°33' W 003°21'816.5
2019-Jun-16 21:00N 53°32' W 003°08'612.1
2019-Jun-16 20:30N 53°27' W 003°01'0 0.8
2019-Jun-16 20:00N 53°27' W 003°01'0 0.2
2019-Jun-16 19:30N 53°27' W 003°01'0 0.0
2019-Jun-16 19:00N 53°27' W 003°01'0 0.0
2019-Jun-16 18:30N 53°27' W 003°01'0 0.0
2019-Jun-16 18:00N 53°27' W 003°01'0 0.0
2019-Jun-16 17:30N 53°27' W 003°01'0 0.0
2019-Jun-16 17:00N 53°27' W 003°01'0 0.0
2019-Jun-16 16:30N 53°27' W 003°01'0 0.0
2019-Jun-16 16:00N 53°27' W 003°01'0 0.0
2019-Jun-16 15:30N 53°27' W 003°01'0 0.0
2019-Jun-16 15:00N 53°27' W 003°01'0 0.0
2019-Jun-16 14:30N 53°27' W 003°01'0 0.0
2019-Jun-16 14:00N 53°27' W 003°01'0 0.0
2019-Jun-16 13:30N 53°27' W 003°01'0 0.0
2019-Jun-16 13:00N 53°27' W 003°01'0 0.0
2019-Jun-16 12:30N 53°27' W 003°01'0 0.0
2019-Jun-16 12:00N 53°27' W 003°01'0 0.0
2019-Jun-16 11:30N 53°27' W 003°01'0 0.0
2019-Jun-16 11:00N 53°27' W 003°01'0 0.0
2019-Jun-16 10:30N 53°27' W 003°01'0 0.0
2019-Jun-16 10:00N 53°27' W 003°01'0 0.0
2019-Jun-16 09:30N 53°27' W 003°01'0 0.0
2019-Jun-16 09:00N 53°27' W 003°01'0 0.0
2019-Jun-16 08:30N 53°27' W 003°01'0 0.0
2019-Jun-16 08:00N 53°27' W 003°01'0 0.0
2019-Jun-16 07:30N 53°27' W 003°01'0 0.0
2019-Jun-16 07:00N 53°27' W 003°01'0 0.0
2019-Jun-16 06:30N 53°27' W 003°01'0 0.0
2019-Jun-16 06:00N 53°27' W 003°01'0 0.0
2019-Jun-16 05:30N 53°27' W 003°01'0 0.0
2019-Jun-16 05:00N 53°27' W 003°01'0 0.8
2019-Jun-16 04:30N 53°27' W 003°01'0 0.3
2019-Jun-16 04:00N 53°27' W 003°01'612.7
2019-Jun-16 03:30N 53°32' W 003°08'816.0
2019-Jun-16 03:00N 53°31' W 003°22'714.5
2019-Jun-16 02:30N 53°31' W 003°34'713.9
2019-Jun-16 02:00N 53°32' W 003°45'714.8
2019-Jun-16 01:31N 53°33' W 003°58'815.0
2019-Jun-16 01:00N 53°35' W 004°10'5816.0
2019-Jun-15 21:23N 53°24' W 005°46'1019.6
2019-Jun-15 20:54N 53°21' W 006°01'614.8
2019-Jun-15 20:30N 53°21' W 006°11'1 3.0
2019-Jun-15 20:00N 53°21' W 006°13'0 0.0
2019-Jun-15 19:24N 53°21' W 006°13'0 0.0
2019-Jun-15 18:51N 53°21' W 006°13'0 0.0
2019-Jun-15 18:21N 53°21' W 006°13'0 0.0
2019-Jun-15 17:48N 53°21' W 006°13'0 0.0
2019-Jun-15 17:18N 53°21' W 006°13'0 0.0
2019-Jun-15 16:48N 53°21' W 006°13'0 0.0
2019-Jun-15 16:30N 53°21' W 006°13'3 5.0
2019-Jun-15 16:00N 53°21' W 006°09'816.4
2019-Jun-15 15:30N 53°22' W 005°56'917.6
2019-Jun-15 14:59N 53°25' W 005°41'5918.5
2019-Jun-15 11:47N 53°34' W 004°02'819.8
2019-Jun-15 11:23N 53°34' W 003°50'719.4
2019-Jun-15 11:00N 53°33' W 003°37'1019.2
2019-Jun-15 10:30N 53°32' W 003°21'918.0
2019-Jun-15 10:00N 53°31' W 003°06'5 9.4
2019-Jun-15 09:30N 53°27' W 003°01'0 0.9
2019-Jun-15 09:00N 53°27' W 003°01'0 0.0
2019-Jun-15 08:30N 53°27' W 003°01'0 0.0
2019-Jun-15 08:00N 53°27' W 003°01'0 0.0
2019-Jun-15 07:30N 53°27' W 003°01'0 0.0
2019-Jun-15 07:00N 53°27' W 003°01'0 0.0
2019-Jun-15 06:30N 53°27' W 003°01'0 0.0
2019-Jun-15 06:00N 53°27' W 003°01'0 0.0
2019-Jun-15 05:30N 53°27' W 003°01'0 0.0
2019-Jun-15 05:00N 53°27' W 003°01'0 0.0
2019-Jun-15 04:30N 53°27' W 003°01'0 0.8
2019-Jun-15 04:00N 53°27' W 003°01'0 0.3
2019-Jun-15 03:30N 53°27' W 003°01'612.0
2019-Jun-15 03:01N 53°31' W 003°08'816.3
2019-Jun-15 02:31N 53°31' W 003°21'1019.5
2019-Jun-15 02:00N 53°31' W 003°38'1019.4
2019-Jun-15 01:30N 53°32' W 003°54'1018.8
2019-Jun-15 01:00N 53°33' W 004°10'6018.1
2019-Jun-14 21:42N 53°23' W 005°49'719.2
2019-Jun-14 21:20N 53°21' W 006°00'516.3
2019-Jun-14 21:01N 53°21' W 006°09'2 4.6
2019-Jun-14 20:30N 53°21' W 006°13'0 0.0
2019-Jun-14 20:00N 53°21' W 006°13'0 0.0
2019-Jun-14 19:30N 53°21' W 006°13'0 0.0
2019-Jun-14 19:00N 53°21' W 006°13'0 0.0
2019-Jun-14 18:30N 53°21' W 006°13'0 0.0
2019-Jun-14 18:00N 53°21' W 006°13'0 0.0
2019-Jun-14 17:30N 53°21' W 006°13'0 0.0
2019-Jun-14 17:00N 53°21' W 006°13'0 0.0
2019-Jun-14 16:30N 53°21' W 006°13'2 4.3
2019-Jun-14 16:00N 53°21' W 006°10'815.2
2019-Jun-14 15:30N 53°22' W 005°57'918.4
2019-Jun-14 15:00N 53°25' W 005°42'5619.5
2019-Jun-14 12:08N 53°34' W 004°10'320.6
2019-Jun-14 12:00N 53°34' W 004°05'1020.4
2019-Jun-14 11:30N 53°33' W 003°48'1020.0
2019-Jun-14 11:01N 53°33' W 003°31'1019.7
2019-Jun-14 10:31N 53°31' W 003°15'816.2
2019-Jun-14 10:01N 53°28' W 003°03'1 2.1
2019-Jun-14 09:30N 53°27' W 003°01'0 0.8
2019-Jun-14 09:00N 53°27' W 003°01'0 0.0
2019-Jun-14 08:30N 53°27' W 003°01'0 0.0
2019-Jun-14 08:00N 53°27' W 003°01'0 0.0
2019-Jun-14 07:30N 53°27' W 003°01'0 0.0
2019-Jun-14 07:00N 53°27' W 003°01'0 0.0
2019-Jun-14 06:30N 53°27' W 003°01'0 0.0
2019-Jun-14 06:00N 53°27' W 003°01'0 0.0
2019-Jun-14 05:30N 53°27' W 003°01'0 0.0
2019-Jun-14 05:00N 53°27' W 003°01'0 0.0
2019-Jun-14 04:30N 53°27' W 003°01'0 0.8
2019-Jun-14 04:00N 53°27' W 003°01'0 0.4
2019-Jun-14 03:30N 53°27' W 003°01'611.1
2019-Jun-14 03:01N 53°31' W 003°07'816.4
2019-Jun-14 02:31N 53°31' W 003°21'918.9
2019-Jun-14 02:01N 53°31' W 003°37'918.2
2019-Jun-14 01:31N 53°33' W 003°52'917.9
2019-Jun-14 01:00N 53°35' W 004°07'6918.2
2019-Jun-13 21:13N 53°21' W 005°60'417.7
2019-Jun-13 21:01N 53°20' W 006°06'4 8.8
2019-Jun-13 20:30N 53°21' W 006°13'0 0.0
2019-Jun-13 20:00N 53°21' W 006°13'0 0.0
2019-Jun-13 19:30N 53°21' W 006°13'0 0.0
2019-Jun-13 19:00N 53°21' W 006°13'0 0.0
2019-Jun-13 18:30N 53°21' W 006°13'0 0.0
2019-Jun-13 18:00N 53°21' W 006°13'0 0.0
2019-Jun-13 17:30N 53°21' W 006°13'0 0.0
2019-Jun-13 17:00N 53°21' W 006°13'0 0.0
2019-Jun-13 16:29N 53°21' W 006°13'2 4.9
2019-Jun-13 16:00N 53°21' W 006°09'815.8
2019-Jun-13 15:30N 53°23' W 005°56'1016.7
2019-Jun-13 14:55N 53°25' W 005°40'5616.9
2019-Jun-13 11:36N 53°34' W 004°07'218.4
2019-Jun-13 11:30N 53°34' W 004°04'918.3
2019-Jun-13 11:01N 53°34' W 003°49'918.1
2019-Jun-13 10:31N 53°33' W 003°34'917.9
2019-Jun-13 10:01N 53°32' W 003°19'917.0
2019-Jun-13 09:30N 53°30' W 003°05'4 7.4
2019-Jun-13 09:00N 53°27' W 003°01'0 0.8
2019-Jun-13 08:28N 53°27' W 003°01'0 0.0
2019-Jun-13 07:58N 53°27' W 003°01'0 0.0
2019-Jun-13 07:28N 53°27' W 003°01'0 0.0
2019-Jun-13 06:58N 53°27' W 003°01'0 0.0
2019-Jun-13 06:28N 53°27' W 003°01'0 0.0
2019-Jun-13 05:58N 53°27' W 003°01'0 0.0
2019-Jun-13 05:28N 53°27' W 003°01'0 0.0
2019-Jun-13 04:58N 53°27' W 003°01'0 0.0
2019-Jun-13 04:31N 53°27' W 003°01'0 0.8
2019-Jun-13 04:00N 53°27' W 003°01'0 0.4
2019-Jun-13 03:30N 53°27' W 003°01'612.6
2019-Jun-13 03:01N 53°32' W 003°08'917.9
2019-Jun-13 02:30N 53°31' W 003°23'918.5
2019-Jun-13 02:00N 53°31' W 003°39'918.2
2019-Jun-13 01:30N 53°32' W 003°54'918.2
2019-Jun-13 01:00N 53°34' W 004°09'6317.4
2019-Jun-12 21:21N 53°23' W 005°54'618.0
2019-Jun-12 21:00N 53°20' W 006°03'611.3
2019-Jun-12 20:30N 53°21' W 006°13'0 0.3
2019-Jun-12 19:58N 53°21' W 006°13'0 0.0
2019-Jun-12 19:28N 53°21' W 006°13'0 0.0
2019-Jun-12 18:58N 53°21' W 006°13'0 0.0
2019-Jun-12 18:19N 53°21' W 006°13'0 0.0
2019-Jun-12 17:46N 53°21' W 006°13'0 0.0
2019-Jun-12 17:10N 53°21' W 006°13'0 0.0
2019-Jun-12 16:58N 53°21' W 006°13'0 0.0
2019-Jun-12 16:30N 53°21' W 006°13'2 4.5
2019-Jun-12 16:00N 53°21' W 006°09'815.7
2019-Jun-12 15:30N 53°22' W 005°56'917.1
2019-Jun-12 15:00N 53°25' W 005°43'5717.0
2019-Jun-12 11:39N 53°34' W 004°08'317.5
2019-Jun-12 11:29N 53°34' W 004°03'817.9
2019-Jun-12 11:00N 53°34' W 003°49'918.1
2019-Jun-12 10:30N 53°33' W 003°34'917.9
2019-Jun-12 10:00N 53°32' W 003°19'816.7
2019-Jun-12 09:30N 53°29' W 003°05'3 6.9
2019-Jun-12 09:00N 53°27' W 003°01'0 0.9
2019-Jun-12 08:30N 53°27' W 003°01'0 0.0
2019-Jun-12 08:00N 53°27' W 003°01'0 0.0
2019-Jun-12 07:30N 53°27' W 003°01'0 0.0
2019-Jun-12 07:00N 53°27' W 003°01'0 0.0
2019-Jun-12 06:30N 53°27' W 003°01'0 0.0
2019-Jun-12 06:00N 53°27' W 003°01'0 0.0
2019-Jun-12 05:30N 53°27' W 003°01'0 0.0
2019-Jun-12 05:00N 53°27' W 003°01'0 0.0
2019-Jun-12 04:30N 53°27' W 003°01'0 0.9
2019-Jun-12 04:00N 53°27' W 003°01'0 0.3
2019-Jun-12 03:30N 53°27' W 003°01'4 8.1
2019-Jun-12 03:00N 53°30' W 003°06'816.1
2019-Jun-12 02:31N 53°31' W 003°19'1817.7
2019-Jun-12 01:31N 53°32' W 003°49'917.5
2019-Jun-12 01:01N 53°34' W 004°03'6817.2
2019-Jun-11 21:03N 53°22' W 005°56'217.9
2019-Jun-11 20:55N 53°21' W 005°59'614.8
2019-Jun-11 20:30N 53°21' W 006°10'2 4.0
2019-Jun-11 20:00N 53°21' W 006°13'0 0.0
2019-Jun-11 19:30N 53°21' W 006°13'0 0.0
2019-Jun-11 19:00N 53°21' W 006°13'0 0.0
2019-Jun-11 18:30N 53°21' W 006°13'0 0.0
2019-Jun-11 18:00N 53°21' W 006°13'0 0.0
2019-Jun-11 17:30N 53°21' W 006°13'0 0.0
2019-Jun-11 17:00N 53°21' W 006°13'0 0.0
2019-Jun-11 16:30N 53°21' W 006°13'1 1.0
2019-Jun-11 16:00N 53°21' W 006°12'612.4
2019-Jun-11 15:30N 53°21' W 006°02'917.0
2019-Jun-11 15:00N 53°24' W 005°48'5916.3
2019-Jun-11 11:22N 53°34' W 004°10'719.9
2019-Jun-11 11:00N 53°34' W 003°58'1020.2
2019-Jun-11 10:30N 53°34' W 003°42'1020.4
2019-Jun-11 10:00N 53°33' W 003°24'1019.0
2019-Jun-11 09:30N 53°32' W 003°09'612.9
2019-Jun-11 09:00N 53°27' W 003°01'0 0.2
2019-Jun-11 08:31N 53°27' W 003°01'0 0.7
2019-Jun-11 07:58N 53°27' W 003°01'0 0.0
2019-Jun-11 07:28N 53°27' W 003°01'0 0.0
2019-Jun-11 06:58N 53°27' W 003°01'0 0.0
2019-Jun-11 06:28N 53°27' W 003°01'0 0.0
2019-Jun-11 05:58N 53°27' W 003°01'0 0.0
2019-Jun-11 05:28N 53°27' W 003°01'0 0.0
2019-Jun-11 04:58N 53°27' W 003°01'0 0.0
2019-Jun-11 04:28N 53°27' W 003°01'0 0.0
2019-Jun-11 03:58N 53°27' W 003°01'0 0.9
2019-Jun-11 03:30N 53°27' W 003°01'4 7.6
2019-Jun-11 03:00N 53°30' W 003°05'816.7
2019-Jun-11 02:30N 53°31' W 003°19'918.6
2019-Jun-11 02:00N 53°31' W 003°35'918.4
2019-Jun-11 01:30N 53°32' W 003°50'918.7
2019-Jun-11 01:00N 53°33' W 004°06'5316.0
2019-Jun-10 21:42N 53°26' W 005°33'1717.3
2019-Jun-10 20:42N 53°21' W 006°01'316.4
2019-Jun-10 20:30N 53°20' W 006°06'4 8.3
2019-Jun-10 20:00N 53°21' W 006°13'0 0.0
2019-Jun-10 19:30N 53°21' W 006°13'0 0.0
2019-Jun-10 18:57N 53°21' W 006°13'0 0.0
2019-Jun-10 18:24N 53°21' W 006°13'0 0.0
2019-Jun-10 17:51N 53°21' W 006°13'0 0.0
2019-Jun-10 17:18N 53°21' W 006°13'0 0.0
2019-Jun-10 16:48N 53°21' W 006°13'0 0.0
2019-Jun-10 16:22N 53°21' W 006°13'0 1.4
2019-Jun-10 16:00N 53°21' W 006°12'5 9.1
2019-Jun-10 15:30N 53°20' W 006°05'2 3.3
2019-Jun-10 15:01N 53°19' W 006°04'0 0.2
2019-Jun-10 14:30N 53°19' W 006°05'0 0.0
2019-Jun-10 14:01N 53°19' W 006°05'0 0.0
2019-Jun-10 13:30N 53°19' W 006°05'0 0.0
2019-Jun-10 13:01N 53°19' W 006°05'0 0.0
2019-Jun-10 12:31N 53°19' W 006°05'0 0.0
2019-Jun-10 12:00N 53°19' W 006°05'0 0.1
2019-Jun-10 11:30N 53°19' W 006°05'0 0.0
2019-Jun-10 11:00N 53°19' W 006°05'0 0.0
2019-Jun-10 10:31N 53°19' W 006°05'0 0.0
2019-Jun-10 10:00N 53°19' W 006°05'0 0.0
2019-Jun-10 09:30N 53°19' W 006°05'0 0.0
2019-Jun-10 09:01N 53°19' W 006°05'0 0.0
2019-Jun-10 08:31N 53°19' W 006°05'0 0.0
2019-Jun-10 08:01N 53°19' W 006°05'0 0.2
2019-Jun-10 07:30N 53°19' W 006°04'4 7.6
2019-Jun-10 07:00N 53°21' W 006°10'2 4.1
2019-Jun-10 06:30N 53°21' W 006°13'0 0.0
2019-Jun-10 06:00N 53°21' W 006°13'0 0.0
2019-Jun-10 05:30N 53°21' W 006°13'0 0.0
2019-Jun-10 05:00N 53°21' W 006°13'0 0.0
2019-Jun-10 04:30N 53°21' W 006°13'2 3.1
2019-Jun-10 04:00N 53°21' W 006°11'713.7
2019-Jun-10 03:29N 53°22' W 005°59'816.7
2019-Jun-10 03:00N 53°24' W 005°46'916.3
2019-Jun-10 02:28N 53°27' W 005°32'5315.5
2019-Jun-09 23:05N 53°35' W 004°05'216.1
2019-Jun-09 22:57N 53°35' W 004°01'716.4
2019-Jun-09 22:30N 53°34' W 003°49'816.9
2019-Jun-09 22:01N 53°34' W 003°35'917.1
2019-Jun-09 21:31N 53°33' W 003°21'917.2
2019-Jun-09 21:01N 53°31' W 003°06'510.0
2019-Jun-09 20:30N 53°27' W 003°01'0 0.5
2019-Jun-09 20:00N 53°27' W 003°01'0 0.5
2019-Jun-09 19:29N 53°27' W 003°01'0 0.0
2019-Jun-09 18:59N 53°27' W 003°01'0 0.0
2019-Jun-09 18:30N 53°27' W 003°01'0 0.0
2019-Jun-09 18:00N 53°27' W 003°01'0 0.0
2019-Jun-09 17:31N 53°27' W 003°01'0 0.0
2019-Jun-09 17:01N 53°27' W 003°01'0 0.0
2019-Jun-09 16:31N 53°27' W 003°01'0 0.0
2019-Jun-09 16:00N 53°27' W 003°01'0 0.0
2019-Jun-09 15:30N 53°27' W 003°01'0 0.0
2019-Jun-09 15:00N 53°27' W 003°01'0 0.0
2019-Jun-09 14:30N 53°27' W 003°01'0 0.0
2019-Jun-09 14:00N 53°27' W 003°01'0 0.0
2019-Jun-09 13:30N 53°27' W 003°01'0 0.0
2019-Jun-09 13:00N 53°27' W 003°01'0 0.0
2019-Jun-09 12:30N 53°27' W 003°01'0 0.0
2019-Jun-09 12:00N 53°27' W 003°01'0 0.0
2019-Jun-09 11:30N 53°27' W 003°01'0 0.0
2019-Jun-09 11:00N 53°27' W 003°01'0 0.0
2019-Jun-09 10:30N 53°27' W 003°01'0 0.0
2019-Jun-09 10:00N 53°27' W 003°01'0 0.0
2019-Jun-09 09:30N 53°27' W 003°01'0 0.0
2019-Jun-09 09:00N 53°27' W 003°01'0 0.0
2019-Jun-09 08:30N 53°27' W 003°01'0 0.0
2019-Jun-09 08:00N 53°27' W 003°01'0 0.0
2019-Jun-09 07:31N 53°27' W 003°01'0 0.0
2019-Jun-09 07:00N 53°27' W 003°01'0 0.0
2019-Jun-09 06:30N 53°27' W 003°01'0 0.0
2019-Jun-09 06:00N 53°27' W 003°01'0 0.0
2019-Jun-09 05:30N 53°27' W 003°01'0 0.0
2019-Jun-09 05:01N 53°27' W 003°01'0 0.4
2019-Jun-09 04:01N 53°27' W 003°01'4 7.9
2019-Jun-09 03:30N 53°30' W 003°06'917.2
2019-Jun-09 03:00N 53°31' W 003°20'816.9
2019-Jun-09 02:30N 53°31' W 003°34'816.0
2019-Jun-09 02:00N 53°31' W 003°48'816.7
2019-Jun-09 01:30N 53°33' W 004°02'916.3
2019-Jun-09 00:57N 53°36' W 004°16'6415.7
2019-Jun-08 20:51N 53°21' W 006°01'515.2
2019-Jun-08 20:30N 53°21' W 006°09'2 2.9
2019-Jun-08 19:45N 53°21' W 006°13'0 0.0
2019-Jun-08 19:12N 53°21' W 006°13'0 0.0
2019-Jun-08 19:00N 53°21' W 006°13'0 0.0
2019-Jun-08 18:30N 53°21' W 006°13'0 0.0
2019-Jun-08 17:54N 53°21' W 006°13'0 0.0
2019-Jun-08 17:30N 53°21' W 006°13'0 0.0
2019-Jun-08 17:00N 53°21' W 006°13'1 2.5
2019-Jun-08 16:30N 53°21' W 006°11'510.7
2019-Jun-08 16:00N 53°21' W 006°02'1019.0
2019-Jun-08 15:30N 53°24' W 005°47'5917.7
2019-Jun-08 12:09N 53°34' W 004°09'216.6
2019-Jun-08 12:00N 53°34' W 004°05'816.8
2019-Jun-08 11:30N 53°34' W 003°51'917.3
2019-Jun-08 11:00N 53°34' W 003°36'917.6
2019-Jun-08 10:30N 53°32' W 003°22'816.3
2019-Jun-08 10:00N 53°32' W 003°08'612.0
2019-Jun-08 09:30N 53°27' W 003°01'0 0.0
2019-Jun-08 09:00N 53°27' W 003°01'0 0.8
2019-Jun-08 08:30N 53°27' W 003°01'0 0.0
2019-Jun-08 07:57N 53°27' W 003°01'0 0.0
2019-Jun-08 07:30N 53°27' W 003°01'0 0.0
2019-Jun-08 07:00N 53°27' W 003°01'0 0.0
2019-Jun-08 06:27N 53°27' W 003°01'0 0.0
2019-Jun-08 05:57N 53°27' W 003°01'0 0.0
2019-Jun-08 05:30N 53°27' W 003°01'0 0.0
2019-Jun-08 05:00N 53°27' W 003°01'0 0.8
2019-Jun-08 04:28N 53°27' W 003°01'0 0.3
2019-Jun-08 04:00N 53°27' W 003°01'714.2
2019-Jun-08 03:31N 53°32' W 003°10'815.2
2019-Jun-08 03:01N 53°31' W 003°23'2 3.1
2019-Jun-08 02:30N 53°32' W 003°25'612.2
2019-Jun-08 02:01N 53°31' W 003°35'816.2
2019-Jun-08 01:30N 53°32' W 003°48'816.6
2019-Jun-08 01:00N 53°34' W 004°02'5917.0
2019-Jun-07 21:33N 53°25' W 005°40'418.9
2019-Jun-07 21:21N 53°24' W 005°46'919.3
2019-Jun-07 20:54N 53°21' W 005°60'615.4
2019-Jun-07 20:30N 53°21' W 006°10'2 4.0
2019-Jun-07 20:00N 53°21' W 006°13'0 0.0
2019-Jun-07 19:30N 53°21' W 006°13'0 0.0
2019-Jun-07 19:00N 53°21' W 006°13'0 0.0
2019-Jun-07 18:30N 53°21' W 006°13'0 0.0
2019-Jun-07 18:00N 53°21' W 006°13'0 0.0
2019-Jun-07 17:30N 53°21' W 006°13'0 0.0
2019-Jun-07 17:00N 53°21' W 006°13'0 0.0
2019-Jun-07 16:30N 53°21' W 006°13'2 3.1
2019-Jun-07 16:00N 53°21' W 006°11'816.3
2019-Jun-07 15:30N 53°22' W 005°57'815.9
2019-Jun-07 15:00N 53°24' W 005°44'1116.3
2019-Jun-07 14:21N 53°27' W 005°27'916.7
2019-Jun-07 13:48N 53°30' W 005°12'2016.9
2019-Jun-07 12:39N 53°34' W 004°40'317.5
2019-Jun-07 12:27N 53°34' W 004°34'817.0
2019-Jun-07 12:00N 53°34' W 004°21'817.0
2019-Jun-07 11:30N 53°34' W 004°07'917.1
2019-Jun-07 11:00N 53°34' W 003°53'917.4
2019-Jun-07 10:30N 53°33' W 003°38'917.8
2019-Jun-07 10:00N 53°33' W 003°23'816.6
2019-Jun-07 09:30N 53°32' W 003°09'714.0
2019-Jun-07 09:01N 53°27' W 003°01'0 0.3
2019-Jun-07 08:30N 53°27' W 003°01'0 0.8
2019-Jun-07 07:58N 53°27' W 003°01'0 0.0
2019-Jun-07 07:28N 53°27' W 003°01'0 0.0
2019-Jun-07 06:58N 53°27' W 003°01'0 0.0
2019-Jun-07 06:28N 53°27' W 003°01'0 0.0
2019-Jun-07 05:58N 53°27' W 003°01'0 0.0
2019-Jun-07 05:28N 53°27' W 003°01'0 0.0
2019-Jun-07 04:58N 53°27' W 003°01'0 0.0
2019-Jun-07 04:28N 53°27' W 003°01'0 0.5
2019-Jun-07 04:00N 53°27' W 003°01'0 0.8
2019-Jun-07 03:30N 53°27' W 003°01'611.4
2019-Jun-07 03:01N 53°31' W 003°07'917.5
2019-Jun-07 02:31N 53°31' W 003°22'918.7
2019-Jun-07 02:00N 53°32' W 003°38'1019.1
2019-Jun-07 01:31N 53°33' W 003°54'1119.5
2019-Jun-07 00:56N 53°35' W 004°12'818.4
2019-Jun-07 00:29N 53°40' W 004°24'  

Dump ship's entire track history